createdAt,value
2023-03-10T00:00:01.860Z,98193.00
2023-03-10T00:02:34.246Z,98181.72
2023-03-10T00:05:02.614Z,98176.50
2023-03-10T00:07:29.414Z,98175.63
2023-03-10T00:09:55.888Z,98195.63
2023-03-10T00:12:22.800Z,98179.97
2023-03-10T00:14:49.546Z,98154.72
2023-03-10T00:17:15.993Z,98164.28
2023-03-10T00:19:42.487Z,98172.09
2023-03-10T00:22:08.928Z,98161.63
2023-03-10T00:24:35.355Z,98135.53
2023-03-10T00:27:01.860Z,98123.31
2023-03-10T00:29:28.402Z,98131.16
2023-03-10T00:31:54.910Z,98135.50
2023-03-10T00:34:21.374Z,98126.78
2023-03-10T00:36:47.860Z,98111.13
2023-03-10T00:39:14.316Z,98105.88
2023-03-10T00:41:40.786Z,98106.78
2023-03-10T00:44:09.565Z,98105.00
2023-03-10T00:46:38.671Z,98082.38
2023-03-10T00:49:08.890Z,98085.88
2023-03-10T00:51:35.552Z,98067.59
2023-03-10T00:54:03.115Z,98051.91
2023-03-10T00:56:30.408Z,98057.13
2023-03-10T00:58:59.599Z,98051.03
2023-03-10T01:01:35.554Z,98053.66
2023-03-10T01:04:05.845Z,98063.22
2023-03-10T01:06:32.602Z,98036.22
2023-03-10T01:08:59.300Z,98037.09
2023-03-10T01:11:27.792Z,98044.94
2023-03-10T01:14:00.433Z,98031.00
2023-03-10T01:16:28.006Z,98029.28
2023-03-10T01:18:55.703Z,98010.13
2023-03-10T01:21:25.081Z,98010.97
2023-03-10T01:23:51.764Z,98005.78
2023-03-10T01:26:19.146Z,98006.63
2023-03-10T01:28:47.718Z,97993.59
2023-03-10T01:31:14.911Z,97976.16
2023-03-10T01:33:42.864Z,97976.16
2023-03-10T01:36:11.141Z,97986.63
2023-03-10T01:38:38.595Z,97974.44
2023-03-10T01:41:06.253Z,97968.31
2023-03-10T01:43:41.563Z,97951.78
2023-03-10T01:46:27.084Z,97955.25
2023-03-10T01:48:57.198Z,97954.41
2023-03-10T01:51:24.471Z,97949.19
2023-03-10T01:53:51.684Z,97943.06
2023-03-10T01:56:18.258Z,97929.16
2023-03-10T01:58:47.162Z,97924.78
2023-03-10T02:01:16.582Z,97902.16
2023-03-10T02:03:49.873Z,97906.50
2023-03-10T02:06:20.561Z,97896.94
2023-03-10T02:08:54.876Z,97891.69
2023-03-10T02:11:21.934Z,97891.69
2023-03-10T02:13:51.346Z,97890.84
2023-03-10T02:16:18.666Z,97879.50
2023-03-10T02:18:47.450Z,97866.41
2023-03-10T02:21:35.904Z,97861.22
2023-03-10T02:24:43.363Z,97851.66
2023-03-10T02:27:18.913Z,97850.75
2023-03-10T02:30:02.186Z,97850.75
2023-03-10T02:32:36.984Z,97840.28
2023-03-10T02:35:05.032Z,97836.81
2023-03-10T02:37:35.376Z,97828.97
2023-03-10T02:40:04.652Z,97824.66
2023-03-10T02:42:36.354Z,97813.31
2023-03-10T02:45:04.002Z,97808.97
2023-03-10T02:47:32.175Z,97801.13
2023-03-10T02:49:58.914Z,97797.66
2023-03-10T02:52:47.897Z,97794.16
2023-03-10T02:55:16.095Z,97785.44
2023-03-10T02:57:43.219Z,97776.72
2023-03-10T03:00:11.912Z,97780.22
2023-03-10T03:02:38.943Z,97776.75
2023-03-10T03:05:06.829Z,97778.47
2023-03-10T03:07:34.106Z,97773.22
2023-03-10T03:10:02.451Z,97769.75
2023-03-10T03:12:29.297Z,97766.25
2023-03-10T03:14:56.013Z,97750.59
2023-03-10T03:17:23.286Z,97740.13
2023-03-10T03:19:49.801Z,97737.53
2023-03-10T03:22:16.283Z,97734.03
2023-03-10T03:24:42.862Z,97717.53
2023-03-10T03:27:09.325Z,97720.09
2023-03-10T03:29:36.199Z,97708.81
2023-03-10T03:32:02.961Z,97709.66
2023-03-10T03:39:07.044Z,97701.84
2023-03-10T03:41:35.092Z,97714.91
2023-03-10T03:44:02.049Z,97698.34
2023-03-10T03:46:30.384Z,97692.25
2023-03-10T03:48:58.444Z,97693.16
2023-03-10T03:51:25.074Z,97688.75
2023-03-10T03:53:51.781Z,97677.41
2023-03-10T03:56:18.503Z,97673.94
2023-03-10T03:58:46.100Z,97666.97
2023-03-10T04:01:13.388Z,97681.75
2023-03-10T04:03:45.278Z,97680.88
2023-03-10T04:06:15.045Z,97669.53
2023-03-10T04:08:42.078Z,97656.50
2023-03-10T04:11:08.803Z,97662.59
2023-03-10T04:13:37.474Z,97669.59
2023-03-10T04:16:06.172Z,97648.72
2023-03-10T04:18:35.471Z,97654.81
2023-03-10T04:21:03.129Z,97665.31
2023-03-10T04:23:30.478Z,97650.53
2023-03-10T04:25:57.834Z,97667.09
2023-03-10T04:28:25.896Z,97654.91
2023-03-10T04:30:52.464Z,97643.59
2023-03-10T04:33:22.764Z,97658.44
2023-03-10T04:35:51.373Z,97632.28
2023-03-10T04:38:19.465Z,97640.16
2023-03-10T04:40:53.553Z,97646.19
2023-03-10T04:43:20.694Z,97695.81
2023-03-10T04:45:48.533Z,97646.28
2023-03-10T04:48:15.639Z,97628.88
2023-03-10T04:50:42.270Z,97671.53
2023-03-10T04:53:09.899Z,97680.25
2023-03-10T04:55:36.445Z,97634.16
2023-03-10T04:58:04.854Z,97622.81
2023-03-10T05:00:32.204Z,97648.91
2023-03-10T05:02:58.958Z,97658.47
2023-03-10T05:05:25.469Z,97634.06
2023-03-10T05:07:51.908Z,97636.66
2023-03-10T05:10:19.489Z,97616.59
2023-03-10T05:12:46.365Z,97632.25
2023-03-10T05:15:13.158Z,97643.50
2023-03-10T05:17:40.058Z,97628.69
2023-03-10T05:20:09.181Z,97637.38
2023-03-10T05:22:37.747Z,97624.25
2023-03-10T05:25:07.420Z,97622.47
2023-03-10T05:27:35.315Z,97625.06
2023-03-10T05:30:02.907Z,97634.63
2023-03-10T05:32:29.498Z,97650.25
2023-03-10T05:34:57.044Z,97647.63
2023-03-10T05:37:24.734Z,97641.56
2023-03-10T05:39:51.903Z,97668.56
2023-03-10T05:42:21.451Z,97642.44
2023-03-10T05:44:48.580Z,97660.75
2023-03-10T05:47:18.974Z,97644.19
2023-03-10T05:49:46.559Z,97634.59
2023-03-10T05:52:13.264Z,97644.19
2023-03-10T05:54:41.346Z,97644.19
2023-03-10T05:57:09.009Z,97644.22
2023-03-10T05:59:36.381Z,97632.03
2023-03-10T06:02:03.398Z,97641.66
2023-03-10T06:04:33.156Z,97639.91
2023-03-10T06:07:00.772Z,97647.75
2023-03-10T06:09:28.057Z,97651.25
2023-03-10T06:11:54.524Z,97653.84
2023-03-10T06:14:21.004Z,97655.59
2023-03-10T06:16:51.485Z,97657.34
2023-03-10T06:19:18.797Z,97669.53
2023-03-10T06:21:45.351Z,97665.13
2023-03-10T06:24:11.916Z,97675.47
2023-03-10T06:26:38.842Z,97685.88
2023-03-10T06:29:05.844Z,97685.84
2023-03-10T06:31:32.942Z,97698.88
2023-03-10T06:34:00.556Z,97681.41
2023-03-10T06:36:31.632Z,97672.66
2023-03-10T06:38:58.854Z,97678.69
2023-03-10T06:41:26.136Z,97679.41
2023-03-10T06:43:53.152Z,97695.00
2023-03-10T06:46:19.780Z,97696.72
2023-03-10T06:48:46.748Z,97701.94
2023-03-10T06:51:16.114Z,97702.75
2023-03-10T06:53:42.726Z,97707.03
2023-03-10T06:56:13.731Z,97702.59
2023-03-10T06:58:40.661Z,97705.09
2023-03-10T07:01:08.752Z,97706.75
2023-03-10T07:03:36.384Z,97714.53
2023-03-10T07:06:03.007Z,97719.72
2023-03-10T07:08:30.151Z,97718.78
2023-03-10T07:10:57.296Z,97729.19
2023-03-10T07:13:23.729Z,97730.88
2023-03-10T07:15:50.254Z,97742.19
2023-03-10T07:18:17.160Z,97748.31
2023-03-10T07:20:53.004Z,97749.97
2023-03-10T07:23:19.913Z,97756.03
2023-03-10T07:25:46.467Z,97762.94
2023-03-10T07:28:13.054Z,97763.81
2023-03-10T07:30:41.242Z,97762.88
2023-03-10T07:33:08.001Z,97768.81
2023-03-10T07:35:36.784Z,97773.03
2023-03-10T07:38:04.004Z,97765.03
2023-03-10T07:40:31.101Z,97772.66
2023-03-10T07:42:57.628Z,97764.78
2023-03-10T07:45:27.296Z,97783.03
2023-03-10T07:47:54.420Z,97786.44
2023-03-10T07:50:21.681Z,97790.72
2023-03-10T07:52:48.216Z,97795.94
2023-03-10T07:55:14.902Z,97787.28
2023-03-10T07:57:41.386Z,97800.56
2023-03-10T08:00:08.803Z,97806.72
2023-03-10T08:02:42.205Z,97814.66
2023-03-10T08:05:09.700Z,97807.72
2023-03-10T08:07:37.247Z,97814.69
2023-03-10T08:10:04.760Z,97810.34
2023-03-10T08:12:31.258Z,97815.53
2023-03-10T08:14:57.968Z,97809.34
2023-03-10T08:17:30.591Z,97811.88
2023-03-10T08:19:58.465Z,97822.47
2023-03-10T08:22:25.105Z,97817.25
2023-03-10T08:24:51.645Z,97834.75
2023-03-10T08:27:18.248Z,97832.13
2023-03-10T08:29:44.702Z,97833.84
2023-03-10T08:32:11.671Z,97829.50
2023-03-10T08:34:38.248Z,97840.94
2023-03-10T08:37:04.941Z,97840.94
2023-03-10T08:39:31.652Z,97844.47
2023-03-10T08:41:58.138Z,97830.44
2023-03-10T08:44:24.610Z,97833.06
2023-03-10T08:46:51.672Z,97840.84
2023-03-10T08:49:20.441Z,97834.66
2023-03-10T08:51:47.052Z,97839.78
2023-03-10T08:54:16.893Z,97840.63
2023-03-10T08:56:43.398Z,97831.94
2023-03-10T08:59:09.869Z,97841.59
2023-03-10T09:01:37.506Z,97840.72
2023-03-10T09:04:05.889Z,97846.72
2023-03-10T09:06:32.829Z,97851.03
2023-03-10T09:08:59.382Z,97853.75
2023-03-10T09:11:29.027Z,97845.88
2023-03-10T09:13:56.035Z,97855.47
2023-03-10T09:16:23.390Z,97852.81
2023-03-10T09:18:49.950Z,97858.97
2023-03-10T09:21:18.311Z,97850.19
2023-03-10T09:23:47.404Z,97849.19
2023-03-10T09:26:14.410Z,97856.06
2023-03-10T09:28:41.406Z,97848.97
2023-03-10T09:31:09.260Z,97855.81
2023-03-10T09:33:35.872Z,97861.81
2023-03-10T09:36:06.956Z,97860.84
2023-03-10T09:38:35.233Z,97863.38
2023-03-10T09:41:26.283Z,97863.22
2023-03-10T09:44:02.416Z,97857.84
2023-03-10T09:46:44.523Z,97856.16
2023-03-10T09:49:26.512Z,97865.84
2023-03-10T09:51:53.003Z,97864.88
2023-03-10T09:54:26.297Z,97864.03
2023-03-10T09:56:55.665Z,97852.72
2023-03-10T09:59:37.225Z,97872.03
2023-03-10T10:02:18.310Z,97872.97
2023-03-10T10:04:45.768Z,97871.16
2023-03-10T10:07:19.780Z,97876.34
2023-03-10T10:09:53.537Z,97880.56
2023-03-10T10:12:23.765Z,97887.50
2023-03-10T10:14:57.766Z,97883.97
2023-03-10T10:17:24.437Z,97882.19
2023-03-10T10:19:52.809Z,97885.69
2023-03-10T10:22:26.745Z,97887.44
2023-03-10T10:25:08.684Z,97896.16
2023-03-10T10:27:36.769Z,97887.44
2023-03-10T10:30:26.689Z,97889.13
2023-03-10T10:33:03.468Z,97893.47
2023-03-10T10:35:33.269Z,97895.22
2023-03-10T10:38:06.919Z,97897.00
2023-03-10T10:40:59.190Z,97901.31
2023-03-10T10:43:25.807Z,97906.25
2023-03-10T10:45:55.472Z,97900.66
2023-03-10T10:48:49.024Z,97897.81
2023-03-10T10:51:29.122Z,97907.44
2023-03-10T10:53:57.533Z,97903.19
2023-03-10T10:56:24.996Z,97903.38
2023-03-10T10:59:22.797Z,97901.88
2023-03-10T11:01:59.038Z,97902.91
2023-03-10T11:04:28.483Z,97893.50
2023-03-10T11:07:24.325Z,97903.31
2023-03-10T11:09:50.899Z,97911.19
2023-03-10T11:12:38.578Z,97909.34
2023-03-10T11:15:19.855Z,97900.38
2023-03-10T11:17:56.196Z,97894.94
2023-03-10T11:20:45.177Z,97888.66
2023-03-10T11:23:30.961Z,97883.28
2023-03-10T11:26:24.451Z,97883.03
2023-03-10T11:29:16.520Z,97885.63
2023-03-10T11:31:57.805Z,97888.97
2023-03-10T11:34:30.564Z,97879.47
2023-03-10T11:37:14.344Z,97882.94
2023-03-10T11:39:49.447Z,97881.25
2023-03-10T11:42:15.924Z,97884.81
2023-03-10T11:44:56.532Z,97887.69
2023-03-10T11:48:04.728Z,97890.72
2023-03-10T11:50:55.769Z,97895.22
2023-03-10T11:53:36.846Z,97882.09
2023-03-10T11:56:05.881Z,97882.09
2023-03-10T11:59:14.171Z,97882.91
2023-03-10T12:01:55.894Z,97883.91
2023-03-10T12:04:32.913Z,97875.06
2023-03-10T12:07:07.756Z,97873.84
2023-03-10T12:09:48.262Z,97863.91
2023-03-10T12:12:36.970Z,97865.44
2023-03-10T12:15:11.600Z,97855.53
2023-03-10T12:17:40.454Z,97859.16
2023-03-10T12:20:13.021Z,97851.34
2023-03-10T12:22:41.055Z,97852.75
2023-03-10T12:25:27.773Z,97855.41
2023-03-10T12:28:18.649Z,97854.47
2023-03-10T12:30:48.576Z,97848.13
2023-03-10T12:33:30.531Z,97851.16
2023-03-10T12:36:15.259Z,97856.78
2023-03-10T12:38:46.574Z,97850.53
2023-03-10T12:41:34.776Z,97853.72
2023-03-10T12:44:32.356Z,97857.28
2023-03-10T12:47:13.892Z,97860.94
2023-03-10T12:49:40.667Z,97856.59
2023-03-10T12:52:07.102Z,97852.28
2023-03-10T12:54:39.137Z,97851.69
2023-03-10T12:57:55.168Z,97851.03
2023-03-10T13:00:48.237Z,97848.47
2023-03-10T13:03:41.820Z,97851.19
2023-03-10T13:06:22.137Z,97852.09
2023-03-10T13:08:54.789Z,97850.19
2023-03-10T13:11:31.503Z,97843.78
2023-03-10T13:14:14.133Z,97842.84
2023-03-10T13:16:41.442Z,97843.72
2023-03-10T13:19:20.784Z,97831.72
2023-03-10T13:21:49.460Z,97842.53
2023-03-10T13:24:21.473Z,97852.41
2023-03-10T13:26:47.993Z,97858.66
2023-03-10T13:29:19.376Z,97852.50
2023-03-10T13:31:54.230Z,97845.44
2023-03-10T13:34:23.056Z,97848.91
2023-03-10T13:36:49.650Z,97844.47
2023-03-10T13:39:17.509Z,97855.88
2023-03-10T13:41:47.371Z,97859.41
2023-03-10T13:44:29.437Z,97866.31
2023-03-10T13:46:58.755Z,97862.00
2023-03-10T13:49:28.579Z,97854.97
2023-03-10T13:52:06.965Z,97866.34
2023-03-10T13:54:38.830Z,97888.38
2023-03-10T13:57:24.201Z,97878.13
2023-03-10T13:59:52.157Z,97870.34
2023-03-10T14:02:35.437Z,97865.19
2023-03-10T14:05:02.577Z,97866.06
2023-03-10T14:07:37.587Z,97858.28
2023-03-10T14:10:08.872Z,97868.00
2023-03-10T14:12:41.244Z,97867.22
2023-03-10T14:15:16.845Z,97865.47
2023-03-10T14:17:44.434Z,97857.59
2023-03-10T14:20:25.407Z,97854.09
2023-03-10T14:22:52.007Z,97866.41
2023-03-10T14:25:21.274Z,97870.75
2023-03-10T14:28:10.935Z,97867.31
2023-03-10T14:30:38.914Z,97870.00
2023-03-10T14:33:12.464Z,97855.09
2023-03-10T14:35:39.941Z,97862.16
2023-03-10T14:38:07.041Z,97872.72
2023-03-10T14:40:39.461Z,97870.19
2023-03-10T14:43:06.041Z,97864.06
2023-03-10T14:45:39.485Z,97863.22
2023-03-10T14:48:14.260Z,97864.94
2023-03-10T14:50:40.955Z,97870.19
2023-03-10T14:53:12.382Z,97864.94
2023-03-10T14:55:40.539Z,97860.66
2023-03-10T14:58:07.891Z,97864.25
2023-03-10T15:00:35.141Z,97861.66
2023-03-10T15:03:01.681Z,97857.31
2023-03-10T15:05:46.844Z,97865.19
2023-03-10T15:08:14.513Z,97866.09
2023-03-10T15:10:46.080Z,97861.78
2023-03-10T15:13:15.469Z,97863.56
2023-03-10T15:15:44.657Z,97855.81
2023-03-10T15:18:17.137Z,97853.28
2023-03-10T15:20:44.327Z,97849.88
2023-03-10T15:23:13.704Z,97846.38
2023-03-10T15:25:43.289Z,97836.78
2023-03-10T15:28:11.304Z,97829.88
2023-03-10T15:30:37.940Z,97835.16
2023-03-10T15:33:04.430Z,97829.03
2023-03-10T15:35:31.164Z,97826.41
2023-03-10T15:37:58.594Z,97827.31
2023-03-10T15:40:28.263Z,97827.28
2023-03-10T15:42:56.267Z,97836.06
2023-03-10T15:45:24.553Z,97837.78
2023-03-10T15:47:51.041Z,97850.88
2023-03-10T15:50:20.928Z,97858.66
2023-03-10T15:52:52.246Z,97861.25
2023-03-10T15:55:19.111Z,97848.03
2023-03-10T15:57:48.273Z,97839.19
2023-03-10T16:00:18.736Z,97843.47
2023-03-10T16:02:45.835Z,97846.00
2023-03-10T16:05:12.568Z,97836.34
2023-03-10T16:07:39.143Z,97825.88
2023-03-10T16:10:06.658Z,97833.81
2023-03-10T16:12:33.121Z,97833.94
2023-03-10T16:14:59.560Z,97831.44
2023-03-10T16:17:26.173Z,97832.34
2023-03-10T16:19:52.633Z,97826.28
2023-03-10T16:22:19.166Z,97812.31
2023-03-10T16:24:45.671Z,97808.00
2023-03-10T16:27:13.006Z,97808.91
2023-03-10T16:29:40.829Z,97814.19
2023-03-10T16:32:08.675Z,97816.00
2023-03-10T16:34:36.095Z,97816.91
2023-03-10T16:37:02.636Z,97820.44
2023-03-10T16:39:32.798Z,97814.34
2023-03-10T16:41:59.670Z,97803.88
2023-03-10T16:44:26.353Z,97797.84
2023-03-10T16:46:53.266Z,97798.75
2023-03-10T16:49:19.851Z,97795.34
2023-03-10T16:51:47.728Z,97798.88
2023-03-10T16:54:18.348Z,97797.19
2023-03-10T16:56:47.662Z,97800.72
2023-03-10T16:59:20.297Z,97802.47
2023-03-10T17:01:47.788Z,97801.63
2023-03-10T17:04:14.350Z,97806.00
2023-03-10T17:06:41.510Z,97803.38
2023-03-10T17:09:10.179Z,97798.16
2023-03-10T17:11:39.004Z,97799.97
2023-03-10T17:14:08.868Z,97796.50
2023-03-10T17:16:36.676Z,97793.00
2023-03-10T17:19:08.673Z,97792.97
2023-03-10T17:21:39.462Z,97783.41
2023-03-10T17:24:10.271Z,97783.44
2023-03-10T17:26:36.919Z,97778.25
2023-03-10T17:29:04.477Z,97776.53
2023-03-10T17:31:31.647Z,97786.16
2023-03-10T17:34:01.054Z,97781.81
2023-03-10T17:36:28.151Z,97787.06
2023-03-10T17:38:56.729Z,97791.41
2023-03-10T17:41:23.823Z,97799.28
2023-03-10T17:43:50.919Z,97793.16
2023-03-10T17:46:19.953Z,97773.13
2023-03-10T17:48:47.016Z,97758.31
2023-03-10T17:51:18.473Z,97758.34
2023-03-10T17:53:46.033Z,97771.44
2023-03-10T17:56:13.390Z,97775.81
2023-03-10T17:58:40.266Z,97770.53
2023-03-10T18:01:12.535Z,97764.44
2023-03-10T18:03:39.655Z,97755.78
2023-03-10T18:06:16.085Z,97758.41
2023-03-10T18:08:42.912Z,97749.72
2023-03-10T18:11:10.655Z,97742.78
2023-03-10T18:13:37.904Z,97749.78
2023-03-10T18:16:05.929Z,97757.63
2023-03-10T18:18:33.146Z,97771.53
2023-03-10T18:20:59.971Z,97783.72
2023-03-10T18:23:26.523Z,97787.19
2023-03-10T18:25:53.112Z,97774.03
2023-03-10T18:28:20.201Z,97777.50
2023-03-10T18:30:49.863Z,97758.31
2023-03-10T18:33:16.687Z,97760.09
2023-03-10T18:35:45.339Z,97754.03
2023-03-10T18:38:13.788Z,97746.22
2023-03-10T18:40:41.091Z,97741.03
2023-03-10T18:43:08.152Z,97740.19
2023-03-10T18:45:34.710Z,97745.47
2023-03-10T18:48:01.117Z,97749.88
2023-03-10T18:50:27.749Z,97750.75
2023-03-10T18:52:54.169Z,97756.91
2023-03-10T18:55:20.614Z,97753.38
2023-03-10T18:57:47.038Z,97750.75
2023-03-10T19:00:17.284Z,97758.63
2023-03-10T19:02:43.918Z,97756.91
2023-03-10T19:05:15.138Z,97749.94
2023-03-10T19:07:41.967Z,97764.81
2023-03-10T19:10:11.610Z,97760.47
2023-03-10T19:12:38.163Z,97763.97
2023-03-10T19:15:08.854Z,97756.13
2023-03-10T19:17:37.600Z,97764.91
2023-03-10T19:20:07.709Z,97759.66
2023-03-10T19:22:35.008Z,97766.66
2023-03-10T19:25:03.742Z,97763.19
2023-03-10T19:27:31.055Z,97766.69
2023-03-10T19:29:58.138Z,97762.34
2023-03-10T19:32:26.227Z,97761.50
2023-03-10T19:34:52.747Z,97755.41
2023-03-10T19:37:19.904Z,97774.59
2023-03-10T19:39:46.430Z,97786.84
2023-03-10T19:42:12.897Z,97781.63
2023-03-10T19:44:39.514Z,97778.97
2023-03-10T19:47:06.208Z,97779.00
2023-03-10T19:49:34.291Z,97782.50
2023-03-10T19:52:01.486Z,97786.03
2023-03-10T19:54:31.240Z,97780.00
2023-03-10T19:56:57.796Z,97775.66
2023-03-10T19:59:25.054Z,97772.22
2023-03-10T20:01:51.820Z,97781.81
2023-03-10T20:04:18.726Z,97776.63
2023-03-10T20:06:45.285Z,97787.97
2023-03-10T20:09:11.852Z,97790.56
2023-03-10T20:11:39.969Z,97801.03
2023-03-10T20:14:07.636Z,97810.66
2023-03-10T20:16:35.347Z,97822.09
2023-03-10T20:19:01.867Z,97829.97
2023-03-10T20:21:28.439Z,97847.38
2023-03-10T20:23:56.343Z,97860.41
2023-03-10T20:26:23.505Z,97866.53
2023-03-10T20:28:50.262Z,97884.78
2023-03-10T20:31:19.588Z,97889.16
2023-03-10T20:33:46.588Z,97905.66
2023-03-10T20:36:16.135Z,97922.16
2023-03-10T20:38:47.114Z,97924.72
2023-03-10T20:41:15.741Z,97942.97
2023-03-10T20:43:43.397Z,97948.09
2023-03-10T20:46:11.308Z,97947.16
2023-03-10T20:48:38.177Z,97962.72
2023-03-10T20:51:05.229Z,97971.34
2023-03-10T20:53:37.259Z,97979.09
2023-03-10T20:56:08.986Z,97991.22
2023-03-10T20:58:36.093Z,98004.22
2023-03-10T21:01:02.750Z,98016.34
2023-03-10T21:03:29.360Z,98031.03
2023-03-10T21:05:55.806Z,98049.19
2023-03-10T21:08:22.305Z,98052.59
2023-03-10T21:10:49.546Z,98068.19
2023-03-10T21:13:16.101Z,98086.34
2023-03-10T21:15:42.593Z,98094.97
2023-03-10T21:18:09.051Z,98100.16
2023-03-10T21:20:35.830Z,98107.06
2023-03-10T21:23:02.291Z,98131.28
2023-03-10T21:25:28.974Z,98144.28
2023-03-10T21:27:58.953Z,98131.19
2023-03-10T21:30:31.940Z,98153.72
2023-03-10T21:32:59.152Z,98152.88
2023-03-10T21:35:27.575Z,98160.63
2023-03-10T21:37:55.481Z,98179.63
2023-03-10T21:40:24.331Z,98184.00
2023-03-10T21:42:51.176Z,98197.91
2023-03-10T21:45:21.416Z,98185.72
2023-03-10T21:47:48.040Z,98190.03
2023-03-10T21:50:16.235Z,98213.44
2023-03-10T21:52:42.904Z,98217.75
2023-03-10T21:55:17.665Z,98237.72
2023-03-10T21:57:44.810Z,98232.47
2023-03-10T22:00:12.747Z,98253.25
2023-03-10T22:02:39.951Z,98267.13
2023-03-10T22:05:07.410Z,98263.63
2023-03-10T22:07:33.882Z,98273.16
2023-03-10T22:10:00.523Z,98282.72
2023-03-10T22:12:26.989Z,98290.53
2023-03-10T22:14:56.354Z,98294.84
2023-03-10T22:17:24.669Z,98312.19
2023-03-10T22:19:52.440Z,98319.13
2023-03-10T22:22:18.909Z,98322.59
2023-03-10T22:24:45.464Z,98336.47
2023-03-10T22:27:12.142Z,98332.13
2023-03-10T22:29:38.961Z,98345.97
2023-03-10T22:32:06.346Z,98352.03
2023-03-10T22:34:32.957Z,98371.13
2023-03-10T22:36:59.943Z,98372.84
2023-03-10T22:39:26.469Z,98371.94
2023-03-10T22:41:52.960Z,98376.25
2023-03-10T22:44:19.479Z,98400.56
2023-03-10T22:46:47.255Z,98399.69
2023-03-10T22:49:14.437Z,98404.06
2023-03-10T22:51:41.473Z,98436.97
2023-03-10T22:54:07.961Z,98424.78
2023-03-10T22:56:34.692Z,98430.00
2023-03-10T22:59:03.960Z,98438.69
2023-03-10T23:01:30.731Z,98462.06
2023-03-10T23:03:57.391Z,98455.16
2023-03-10T23:06:26.252Z,98465.56
2023-03-10T23:08:53.200Z,98481.19
2023-03-10T23:11:19.711Z,98492.44
2023-03-10T23:13:46.340Z,98530.50
2023-03-10T23:16:13.228Z,98525.28
2023-03-10T23:18:40.171Z,98527.03
2023-03-10T23:21:06.969Z,98529.59
2023-03-10T23:23:33.694Z,98545.25
2023-03-10T23:26:00.249Z,98564.28
2023-03-10T23:28:27.238Z,98550.47
2023-03-10T23:30:54.323Z,98569.53
2023-03-10T23:33:23.277Z,98586.91
2023-03-10T23:35:53.699Z,98598.16
2023-03-10T23:38:22.650Z,98605.13
2023-03-10T23:40:50.566Z,98610.31
2023-03-10T23:43:17.679Z,98626.75
2023-03-10T23:45:44.701Z,98638.03
2023-03-10T23:48:15.998Z,98650.16
2023-03-10T23:50:44.552Z,98655.38
2023-03-10T23:53:13.063Z,98677.06
2023-03-10T23:55:42.551Z,98668.38
2023-03-10T23:58:09.790Z,98698.72
